sensor_id;sensor_type;location;lat;lon;timestamp;P1;durP1;ratioP1;P2;durP2;ratioP2
10343;SDS011;5217;43.960;10.954;2022-11-24T00:01:31;3.67;;;2.70;;
10343;SDS011;5217;43.960;10.954;2022-11-24T00:04:00;3.93;;;2.93;;
10343;SDS011;5217;43.960;10.954;2022-11-24T00:06:33;3.90;;;3.00;;
10343;SDS011;5217;43.960;10.954;2022-11-24T00:09:02;5.37;;;3.03;;
10343;SDS011;5217;43.960;10.954;2022-11-24T00:11:33;3.23;;;2.93;;
10343;SDS011;5217;43.960;10.954;2022-11-24T00:14:03;6.27;;;2.90;;
10343;SDS011;5217;43.960;10.954;2022-11-24T00:16:32;3.53;;;2.73;;
10343;SDS011;5217;43.960;10.954;2022-11-24T00:19:02;4.53;;;2.90;;
10343;SDS011;5217;43.960;10.954;2022-11-24T00:21:35;3.60;;;2.80;;
10343;SDS011;5217;43.960;10.954;2022-11-24T00:24:04;3.50;;;3.20;;
10343;SDS011;5217;43.960;10.954;2022-11-24T00:26:33;3.87;;;2.70;;
10343;SDS011;5217;43.960;10.954;2022-11-24T00:29:03;4.77;;;2.90;;
10343;SDS011;5217;43.960;10.954;2022-11-24T00:31:34;3.17;;;2.80;;
10343;SDS011;5217;43.960;10.954;2022-11-24T00:34:04;4.27;;;2.80;;
10343;SDS011;5217;43.960;10.954;2022-11-24T00:36:35;5.63;;;3.20;;
10343;SDS011;5217;43.960;10.954;2022-11-24T00:39:04;3.50;;;3.00;;
10343;SDS011;5217;43.960;10.954;2022-11-24T00:41:34;3.77;;;3.37;;
10343;SDS011;5217;43.960;10.954;2022-11-24T00:44:03;3.50;;;3.20;;
10343;SDS011;5217;43.960;10.954;2022-11-24T00:46:31;4.37;;;3.27;;
10343;SDS011;5217;43.960;10.954;2022-11-24T00:49:00;4.00;;;2.87;;
10343;SDS011;5217;43.960;10.954;2022-11-24T00:51:29;3.50;;;2.47;;
10343;SDS011;5217;43.960;10.954;2022-11-24T00:53:59;2.90;;;2.50;;
10343;SDS011;5217;43.960;10.954;2022-11-24T00:56:28;4.47;;;3.00;;
10343;SDS011;5217;43.960;10.954;2022-11-24T00:58:57;4.30;;;3.00;;
10343;SDS011;5217;43.960;10.954;2022-11-24T01:01:26;3.23;;;2.90;;
10343;SDS011;5217;43.960;10.954;2022-11-24T01:03:57;4.67;;;3.37;;
10343;SDS011;5217;43.960;10.954;2022-11-24T01:06:28;4.40;;;4.00;;
10343;SDS011;5217;43.960;10.954;2022-11-24T01:08:59;5.80;;;5.20;;
10343;SDS011;5217;43.960;10.954;2022-11-24T01:11:29;8.27;;;5.73;;
10343;SDS011;5217;43.960;10.954;2022-11-24T01:14:20;6.80;;;6.20;;
10343;SDS011;5217;43.960;10.954;2022-11-24T01:16:50;7.60;;;6.90;;
10343;SDS011;5217;43.960;10.954;2022-11-24T01:19:19;8.37;;;7.57;;
10343;SDS011;5217;43.960;10.954;2022-11-24T01:21:47;8.67;;;7.77;;
10343;SDS011;5217;43.960;10.954;2022-11-24T01:24:17;8.67;;;7.87;;
10343;SDS011;5217;43.960;10.954;2022-11-24T01:26:46;8.00;;;7.20;;
10343;SDS011;5217;43.960;10.954;2022-11-24T01:29:14;8.23;;;7.47;;
10343;SDS011;5217;43.960;10.954;2022-11-24T01:31:43;8.10;;;7.07;;
10343;SDS011;5217;43.960;10.954;2022-11-24T01:34:11;7.73;;;6.93;;
10343;SDS011;5217;43.960;10.954;2022-11-24T01:36:40;7.40;;;6.67;;
10343;SDS011;5217;43.960;10.954;2022-11-24T01:39:08;8.47;;;7.33;;
10343;SDS011;5217;43.960;10.954;2022-11-24T01:41:38;7.90;;;7.20;;
10343;SDS011;5217;43.960;10.954;2022-11-24T01:44:20;8.00;;;7.20;;
10343;SDS011;5217;43.960;10.954;2022-11-24T01:46:51;8.27;;;7.50;;
10343;SDS011;5217;43.960;10.954;2022-11-24T01:49:24;7.47;;;6.77;;
10343;SDS011;5217;43.960;10.954;2022-11-24T01:51:58;8.47;;;7.57;;
10343;SDS011;5217;43.960;10.954;2022-11-24T01:54:32;7.87;;;7.10;;
10343;SDS011;5217;43.960;10.954;2022-11-24T01:57:06;7.80;;;7.00;;
10343;SDS011;5217;43.960;10.954;2022-11-24T01:59:39;6.77;;;6.17;;
10343;SDS011;5217;43.960;10.954;2022-11-24T02:02:08;6.80;;;6.20;;
10343;SDS011;5217;43.960;10.954;2022-11-24T02:04:38;6.40;;;5.90;;
10343;SDS011;5217;43.960;10.954;2022-11-24T02:07:08;6.37;;;5.60;;
10343;SDS011;5217;43.960;10.954;2022-11-24T02:09:39;6.07;;;5.47;;
10343;SDS011;5217;43.960;10.954;2022-11-24T02:12:13;6.10;;;5.57;;
10343;SDS011;5217;43.960;10.954;2022-11-24T02:14:42;7.53;;;6.07;;
10343;SDS011;5217;43.960;10.954;2022-11-24T02:17:12;6.20;;;5.60;;
10343;SDS011;5217;43.960;10.954;2022-11-24T02:19:43;6.70;;;5.97;;
10343;SDS011;5217;43.960;10.954;2022-11-24T02:22:20;5.80;;;5.20;;
10343;SDS011;5217;43.960;10.954;2022-11-24T02:24:57;5.63;;;5.10;;
10343;SDS011;5217;43.960;10.954;2022-11-24T02:27:31;5.73;;;4.33;;
10343;SDS011;5217;43.960;10.954;2022-11-24T02:30:00;5.57;;;4.23;;
10343;SDS011;5217;43.960;10.954;2022-11-24T02:32:28;3.97;;;3.60;;
10343;SDS011;5217;43.960;10.954;2022-11-24T02:34:59;4.40;;;3.47;;
10343;SDS011;5217;43.960;10.954;2022-11-24T02:37:28;4.03;;;3.50;;
10343;SDS011;5217;43.960;10.954;2022-11-24T02:39:57;3.83;;;3.17;;
10343;SDS011;5217;43.960;10.954;2022-11-24T02:42:25;3.90;;;2.43;;
10343;SDS011;5217;43.960;10.954;2022-11-24T02:44:58;3.80;;;2.57;;
10343;SDS011;5217;43.960;10.954;2022-11-24T02:47:28;3.30;;;2.30;;
10343;SDS011;5217;43.960;10.954;2022-11-24T02:49:56;2.53;;;2.00;;
10343;SDS011;5217;43.960;10.954;2022-11-24T02:52:25;3.33;;;2.13;;
10343;SDS011;5217;43.960;10.954;2022-11-24T02:54:53;4.57;;;2.20;;
10343;SDS011;5217;43.960;10.954;2022-11-24T02:57:22;5.43;;;2.17;;
10343;SDS011;5217;43.960;10.954;2022-11-24T02:59:50;3.20;;;2.13;;
10343;SDS011;5217;43.960;10.954;2022-11-24T03:05:43;3.27;;;2.40;;
10343;SDS011;5217;43.960;10.954;2022-11-24T03:08:12;5.23;;;2.10;;
10343;SDS011;5217;43.960;10.954;2022-11-24T03:10:40;2.97;;;2.10;;
10343;SDS011;5217;43.960;10.954;2022-11-24T03:13:09;3.30;;;2.00;;
10343;SDS011;5217;43.960;10.954;2022-11-24T03:15:37;4.57;;;2.17;;
10343;SDS011;5217;43.960;10.954;2022-11-24T03:18:06;3.63;;;2.00;;
10343;SDS011;5217;43.960;10.954;2022-11-24T03:20:35;4.90;;;2.20;;
10343;SDS011;5217;43.960;10.954;2022-11-24T03:23:05;2.60;;;1.80;;
10343;SDS011;5217;43.960;10.954;2022-11-24T03:25:33;2.77;;;1.93;;
10343;SDS011;5217;43.960;10.954;2022-11-24T03:28:02;1.70;;;1.60;;
10343;SDS011;5217;43.960;10.954;2022-11-24T03:30:31;2.57;;;1.70;;
10343;SDS011;5217;43.960;10.954;2022-11-24T03:32:59;4.53;;;1.80;;
10343;SDS011;5217;43.960;10.954;2022-11-24T03:35:28;4.23;;;1.70;;
10343;SDS011;5217;43.960;10.954;2022-11-24T03:37:56;2.67;;;1.53;;
10343;SDS011;5217;43.960;10.954;2022-11-24T03:40:26;2.53;;;1.77;;
10343;SDS011;5217;43.960;10.954;2022-11-24T03:42:55;2.43;;;1.70;;
10343;SDS011;5217;43.960;10.954;2022-11-24T03:45:23;4.27;;;1.93;;
10343;SDS011;5217;43.960;10.954;2022-11-24T03:48:11;3.53;;;1.70;;
10343;SDS011;5217;43.960;10.954;2022-11-24T03:50:40;2.00;;;1.60;;
10343;SDS011;5217;43.960;10.954;2022-11-24T03:53:08;5.20;;;2.23;;
10343;SDS011;5217;43.960;10.954;2022-11-24T03:55:38;3.17;;;1.73;;
10343;SDS011;5217;43.960;10.954;2022-11-24T03:58:09;2.90;;;1.70;;
10343;SDS011;5217;43.960;10.954;2022-11-24T04:00:38;1.87;;;1.60;;
10343;SDS011;5217;43.960;10.954;2022-11-24T04:03:06;2.33;;;1.87;;
10343;SDS011;5217;43.960;10.954;2022-11-24T04:05:35;3.23;;;1.80;;
10343;SDS011;5217;43.960;10.954;2022-11-24T04:08:04;3.47;;;1.70;;
10343;SDS011;5217;43.960;10.954;2022-11-24T04:10:34;2.73;;;1.80;;
10343;SDS011;5217;43.960;10.954;2022-11-24T04:13:09;2.47;;;1.80;;
10343;SDS011;5217;43.960;10.954;2022-11-24T04:15:39;3.70;;;1.67;;
10343;SDS011;5217;43.960;10.954;2022-11-24T04:18:09;3.10;;;1.63;;
10343;SDS011;5217;43.960;10.954;2022-11-24T04:20:38;2.57;;;1.70;;
10343;SDS011;5217;43.960;10.954;2022-11-24T04:23:07;2.70;;;1.80;;
10343;SDS011;5217;43.960;10.954;2022-11-24T04:25:36;2.33;;;1.60;;
10343;SDS011;5217;43.960;10.954;2022-11-24T04:28:08;1.87;;;1.50;;
10343;SDS011;5217;43.960;10.954;2022-11-24T04:30:36;3.00;;;1.50;;
10343;SDS011;5217;43.960;10.954;2022-11-24T04:33:10;3.27;;;1.57;;
10343;SDS011;5217;43.960;10.954;2022-11-24T04:35:39;3.43;;;1.90;;
10343;SDS011;5217;43.960;10.954;2022-11-24T04:38:08;3.97;;;2.07;;
10343;SDS011;5217;43.960;10.954;2022-11-24T04:40:36;2.60;;;1.43;;
10343;SDS011;5217;43.960;10.954;2022-11-24T04:43:05;3.40;;;1.83;;
10343;SDS011;5217;43.960;10.954;2022-11-24T04:45:35;4.80;;;1.83;;
10343;SDS011;5217;43.960;10.954;2022-11-24T04:48:04;4.97;;;2.30;;
10343;SDS011;5217;43.960;10.954;2022-11-24T04:50:33;4.17;;;2.20;;
10343;SDS011;5217;43.960;10.954;2022-11-24T04:53:02;5.87;;;2.83;;
10343;SDS011;5217;43.960;10.954;2022-11-24T04:55:30;3.30;;;2.50;;
10343;SDS011;5217;43.960;10.954;2022-11-24T04:57:59;2.93;;;2.30;;
10343;SDS011;5217;43.960;10.954;2022-11-24T05:00:29;3.40;;;2.50;;
10343;SDS011;5217;43.960;10.954;2022-11-24T05:02:57;3.40;;;2.27;;
10343;SDS011;5217;43.960;10.954;2022-11-24T05:05:26;5.33;;;2.00;;
10343;SDS011;5217;43.960;10.954;2022-11-24T05:07:54;3.13;;;1.80;;
10343;SDS011;5217;43.960;10.954;2022-11-24T05:10:22;2.10;;;1.90;;
10343;SDS011;5217;43.960;10.954;2022-11-24T05:13:04;2.70;;;1.80;;
10343;SDS011;5217;43.960;10.954;2022-11-24T05:15:37;3.33;;;1.80;;
10343;SDS011;5217;43.960;10.954;2022-11-24T05:18:08;4.27;;;2.10;;
10343;SDS011;5217;43.960;10.954;2022-11-24T05:20:38;3.10;;;1.90;;
10343;SDS011;5217;43.960;10.954;2022-11-24T05:23:10;3.40;;;2.00;;
10343;SDS011;5217;43.960;10.954;2022-11-24T05:25:39;2.00;;;1.80;;
10343;SDS011;5217;43.960;10.954;2022-11-24T05:28:13;3.67;;;1.90;;
10343;SDS011;5217;43.960;10.954;2022-11-24T05:30:43;2.60;;;1.80;;
10343;SDS011;5217;43.960;10.954;2022-11-24T05:33:12;1.97;;;1.77;;
10343;SDS011;5217;43.960;10.954;2022-11-24T05:35:44;5.23;;;1.83;;
10343;SDS011;5217;43.960;10.954;2022-11-24T05:38:14;2.80;;;1.93;;
10343;SDS011;5217;43.960;10.954;2022-11-24T05:40:43;2.17;;;1.83;;
10343;SDS011;5217;43.960;10.954;2022-11-24T05:43:13;4.23;;;2.20;;
10343;SDS011;5217;43.960;10.954;2022-11-24T05:45:43;3.43;;;2.43;;
10343;SDS011;5217;43.960;10.954;2022-11-24T05:48:12;2.40;;;2.20;;
10343;SDS011;5217;43.960;10.954;2022-11-24T05:50:41;5.10;;;2.50;;
10343;SDS011;5217;43.960;10.954;2022-11-24T05:53:11;3.27;;;2.10;;
10343;SDS011;5217;43.960;10.954;2022-11-24T05:55:40;2.83;;;1.80;;
10343;SDS011;5217;43.960;10.954;2022-11-24T05:58:08;2.27;;;1.83;;
10343;SDS011;5217;43.960;10.954;2022-11-24T06:00:37;3.57;;;2.00;;
10343;SDS011;5217;43.960;10.954;2022-11-24T06:03:07;3.10;;;1.70;;
10343;SDS011;5217;43.960;10.954;2022-11-24T06:05:37;4.57;;;1.47;;
10343;SDS011;5217;43.960;10.954;2022-11-24T06:08:05;2.80;;;1.67;;
10343;SDS011;5217;43.960;10.954;2022-11-24T06:10:34;2.57;;;1.97;;
10343;SDS011;5217;43.960;10.954;2022-11-24T06:13:03;2.97;;;2.10;;
10343;SDS011;5217;43.960;10.954;2022-11-24T06:15:32;2.33;;;2.13;;
10343;SDS011;5217;43.960;10.954;2022-11-24T06:18:03;2.70;;;2.20;;
10343;SDS011;5217;43.960;10.954;2022-11-24T06:20:33;2.93;;;2.30;;
10343;SDS011;5217;43.960;10.954;2022-11-24T06:23:01;3.13;;;2.57;;
10343;SDS011;5217;43.960;10.954;2022-11-24T06:25:29;3.50;;;2.10;;
10343;SDS011;5217;43.960;10.954;2022-11-24T06:28:00;2.90;;;2.13;;
10343;SDS011;5217;43.960;10.954;2022-11-24T06:30:30;3.63;;;2.10;;
10343;SDS011;5217;43.960;10.954;2022-11-24T06:32:59;3.13;;;2.30;;
10343;SDS011;5217;43.960;10.954;2022-11-24T06:35:28;3.90;;;2.37;;
10343;SDS011;5217;43.960;10.954;2022-11-24T06:37:58;3.40;;;2.60;;
10343;SDS011;5217;43.960;10.954;2022-11-24T06:40:26;6.97;;;4.40;;
10343;SDS011;5217;43.960;10.954;2022-11-24T06:42:54;8.43;;;5.80;;
10343;SDS011;5217;43.960;10.954;2022-11-24T06:45:23;7.67;;;6.87;;
10343;SDS011;5217;43.960;10.954;2022-11-24T06:47:52;7.83;;;7.00;;
10343;SDS011;5217;43.960;10.954;2022-11-24T06:50:21;7.07;;;6.33;;
10343;SDS011;5217;43.960;10.954;2022-11-24T06:52:55;7.50;;;5.70;;
10343;SDS011;5217;43.960;10.954;2022-11-24T06:55:25;7.23;;;6.53;;
10343;SDS011;5217;43.960;10.954;2022-11-24T06:57:54;7.30;;;5.37;;
10343;SDS011;5217;43.960;10.954;2022-11-24T07:00:22;5.10;;;4.60;;
10343;SDS011;5217;43.960;10.954;2022-11-24T07:02:51;3.80;;;3.00;;
10343;SDS011;5217;43.960;10.954;2022-11-24T07:05:20;3.37;;;2.60;;
10343;SDS011;5217;43.960;10.954;2022-11-24T07:07:49;3.83;;;2.63;;
10343;SDS011;5217;43.960;10.954;2022-11-24T07:10:19;3.53;;;2.30;;
10343;SDS011;5217;43.960;10.954;2022-11-24T07:12:47;2.97;;;2.30;;
10343;SDS011;5217;43.960;10.954;2022-11-24T07:15:15;2.90;;;2.20;;
10343;SDS011;5217;43.960;10.954;2022-11-24T07:17:44;3.73;;;2.97;;
10343;SDS011;5217;43.960;10.954;2022-11-24T07:20:12;6.50;;;3.30;;
10343;SDS011;5217;43.960;10.954;2022-11-24T07:22:41;4.53;;;3.20;;
10343;SDS011;5217;43.960;10.954;2022-11-24T07:25:10;2.93;;;2.40;;
10343;SDS011;5217;43.960;10.954;2022-11-24T07:27:41;4.63;;;2.70;;
10343;SDS011;5217;43.960;10.954;2022-11-24T07:30:10;4.13;;;2.70;;
10343;SDS011;5217;43.960;10.954;2022-11-24T07:32:39;5.80;;;3.13;;
10343;SDS011;5217;43.960;10.954;2022-11-24T07:35:07;2.90;;;2.20;;
10343;SDS011;5217;43.960;10.954;2022-11-24T07:37:36;3.50;;;2.47;;
10343;SDS011;5217;43.960;10.954;2022-11-24T07:40:05;2.70;;;2.50;;
10343;SDS011;5217;43.960;10.954;2022-11-24T07:42:34;3.77;;;3.13;;
10343;SDS011;5217;43.960;10.954;2022-11-24T07:45:05;5.23;;;3.83;;
10343;SDS011;5217;43.960;10.954;2022-11-24T07:47:37;4.30;;;3.90;;
10343;SDS011;5217;43.960;10.954;2022-11-24T07:50:06;4.20;;;3.77;;
10343;SDS011;5217;43.960;10.954;2022-11-24T07:52:36;3.53;;;3.23;;
10343;SDS011;5217;43.960;10.954;2022-11-24T07:55:06;5.90;;;4.20;;
10343;SDS011;5217;43.960;10.954;2022-11-24T07:57:35;5.73;;;4.80;;
10343;SDS011;5217;43.960;10.954;2022-11-24T08:00:06;4.67;;;4.27;;
10343;SDS011;5217;43.960;10.954;2022-11-24T08:02:35;4.50;;;4.10;;
10343;SDS011;5217;43.960;10.954;2022-11-24T08:05:04;4.37;;;3.93;;
10343;SDS011;5217;43.960;10.954;2022-11-24T08:07:34;5.73;;;4.83;;
10343;SDS011;5217;43.960;10.954;2022-11-24T08:10:02;7.17;;;5.77;;
10343;SDS011;5217;43.960;10.954;2022-11-24T08:12:31;6.30;;;5.33;;
10343;SDS011;5217;43.960;10.954;2022-11-24T08:15:00;5.40;;;4.40;;
10343;SDS011;5217;43.960;10.954;2022-11-24T08:17:37;4.40;;;4.00;;
10343;SDS011;5217;43.960;10.954;2022-11-24T08:20:06;5.97;;;4.37;;
10343;SDS011;5217;43.960;10.954;2022-11-24T08:22:36;5.40;;;4.47;;
10343;SDS011;5217;43.960;10.954;2022-11-24T08:25:05;5.27;;;4.77;;
10343;SDS011;5217;43.960;10.954;2022-11-24T08:27:34;5.57;;;4.97;;
10343;SDS011;5217;43.960;10.954;2022-11-24T08:30:02;6.80;;;6.10;;
10343;SDS011;5217;43.960;10.954;2022-11-24T08:32:31;8.43;;;6.10;;
10343;SDS011;5217;43.960;10.954;2022-11-24T08:35:01;7.90;;;6.03;;
10343;SDS011;5217;43.960;10.954;2022-11-24T08:37:45;4.90;;;4.40;;
10343;SDS011;5217;43.960;10.954;2022-11-24T08:40:14;4.97;;;4.10;;
10343;SDS011;5217;43.960;10.954;2022-11-24T08:42:43;4.23;;;3.60;;
10343;SDS011;5217;43.960;10.954;2022-11-24T08:45:12;4.83;;;3.87;;
10343;SDS011;5217;43.960;10.954;2022-11-24T08:47:50;5.90;;;5.37;;
10343;SDS011;5217;43.960;10.954;2022-11-24T08:50:20;8.23;;;6.60;;
10343;SDS011;5217;43.960;10.954;2022-11-24T08:52:51;5.30;;;4.80;;
10343;SDS011;5217;43.960;10.954;2022-11-24T08:55:20;5.67;;;3.93;;
10343;SDS011;5217;43.960;10.954;2022-11-24T08:57:48;4.13;;;3.73;;
10343;SDS011;5217;43.960;10.954;2022-11-24T09:00:17;4.23;;;3.50;;
10343;SDS011;5217;43.960;10.954;2022-11-24T09:02:52;2.83;;;2.63;;
10343;SDS011;5217;43.960;10.954;2022-11-24T09:05:26;3.10;;;2.80;;
10343;SDS011;5217;43.960;10.954;2022-11-24T09:08:14;3.80;;;3.30;;
10343;SDS011;5217;43.960;10.954;2022-11-24T09:10:42;3.90;;;3.10;;
10343;SDS011;5217;43.960;10.954;2022-11-24T09:13:12;3.60;;;2.80;;
10343;SDS011;5217;43.960;10.954;2022-11-24T09:15:40;3.30;;;2.67;;
10343;SDS011;5217;43.960;10.954;2022-11-24T09:18:09;4.00;;;3.33;;
10343;SDS011;5217;43.960;10.954;2022-11-24T09:20:39;3.80;;;3.40;;
10343;SDS011;5217;43.960;10.954;2022-11-24T09:23:07;4.60;;;4.03;;
10343;SDS011;5217;43.960;10.954;2022-11-24T09:25:36;4.13;;;3.63;;
10343;SDS011;5217;43.960;10.954;2022-11-24T09:28:04;4.03;;;2.80;;
10343;SDS011;5217;43.960;10.954;2022-11-24T09:30:33;3.30;;;2.50;;
10343;SDS011;5217;43.960;10.954;2022-11-24T09:33:02;3.50;;;3.10;;
10343;SDS011;5217;43.960;10.954;2022-11-24T09:35:30;4.67;;;2.93;;
10343;SDS011;5217;43.960;10.954;2022-11-24T09:38:00;4.20;;;3.80;;
10343;SDS011;5217;43.960;10.954;2022-11-24T09:40:29;4.60;;;3.50;;
10343;SDS011;5217;43.960;10.954;2022-11-24T09:42:58;5.57;;;5.00;;
10343;SDS011;5217;43.960;10.954;2022-11-24T09:45:38;10.47;;;8.23;;
10343;SDS011;5217;43.960;10.954;2022-11-24T09:48:32;12.57;;;11.10;;
10343;SDS011;5217;43.960;10.954;2022-11-24T09:51:03;12.13;;;10.20;;
10343;SDS011;5217;43.960;10.954;2022-11-24T09:53:35;10.83;;;9.73;;
10343;SDS011;5217;43.960;10.954;2022-11-24T09:56:13;12.23;;;10.13;;
10343;SDS011;5217;43.960;10.954;2022-11-24T09:58:47;12.30;;;10.87;;
10343;SDS011;5217;43.960;10.954;2022-11-24T10:01:18;13.97;;;10.97;;
10343;SDS011;5217;43.960;10.954;2022-11-24T10:03:49;8.73;;;7.87;;
10343;SDS011;5217;43.960;10.954;2022-11-24T10:06:22;7.67;;;6.47;;
10343;SDS011;5217;43.960;10.954;2022-11-24T10:09:01;6.77;;;5.47;;
10343;SDS011;5217;43.960;10.954;2022-11-24T10:11:38;5.28;;;4.50;;
10343;SDS011;5217;43.960;10.954;2022-11-24T10:14:23;8.07;;;6.23;;
10343;SDS011;5217;43.960;10.954;2022-11-24T10:17:18;10.50;;;7.03;;
10343;SDS011;5217;43.960;10.954;2022-11-24T10:19:56;7.70;;;6.73;;
10343;SDS011;5217;43.960;10.954;2022-11-24T10:22:35;7.50;;;6.00;;
10343;SDS011;5217;43.960;10.954;2022-11-24T10:25:19;9.60;;;6.40;;
10343;SDS011;5217;43.960;10.954;2022-11-24T10:27:54;10.53;;;6.60;;
10343;SDS011;5217;43.960;10.954;2022-11-24T10:30:25;9.23;;;6.60;;
10343;SDS011;5217;43.960;10.954;2022-11-24T10:32:55;9.52;;;7.13;;
10343;SDS011;5217;43.960;10.954;2022-11-24T10:35:27;9.18;;;8.07;;
10343;SDS011;5217;43.960;10.954;2022-11-24T10:38:00;11.55;;;7.88;;
10343;SDS011;5217;43.960;10.954;2022-11-24T10:40:37;6.60;;;5.45;;
10343;SDS011;5217;43.960;10.954;2022-11-24T10:43:24;6.18;;;5.10;;
10343;SDS011;5217;43.960;10.954;2022-11-24T10:45:53;5.88;;;4.50;;
10343;SDS011;5217;43.960;10.954;2022-11-24T10:48:27;6.30;;;4.05;;
10343;SDS011;5217;43.960;10.954;2022-11-24T10:51:07;5.15;;;3.92;;
10343;SDS011;5217;43.960;10.954;2022-11-24T10:54:04;4.38;;;3.40;;
10343;SDS011;5217;43.960;10.954;2022-11-24T10:56:41;7.28;;;3.97;;
10343;SDS011;5217;43.960;10.954;2022-11-24T10:59:25;5.90;;;4.10;;
10343;SDS011;5217;43.960;10.954;2022-11-24T11:02:08;4.82;;;3.65;;
10343;SDS011;5217;43.960;10.954;2022-11-24T11:04:55;4.90;;;3.50;;
10343;SDS011;5217;43.960;10.954;2022-11-24T11:07:25;3.88;;;3.15;;
10343;SDS011;5217;43.960;10.954;2022-11-24T11:12:48;5.15;;;2.78;;
10343;SDS011;5217;43.960;10.954;2022-11-24T11:15:21;3.78;;;2.65;;
10343;SDS011;5217;43.960;10.954;2022-11-24T11:17:54;3.22;;;2.60;;
10343;SDS011;5217;43.960;10.954;2022-11-24T11:20:26;3.55;;;2.50;;
10343;SDS011;5217;43.960;10.954;2022-11-24T11:22:56;4.72;;;2.97;;
10343;SDS011;5217;43.960;10.954;2022-11-24T11:25:28;4.45;;;3.00;;
10343;SDS011;5217;43.960;10.954;2022-11-24T11:28:15;3.92;;;2.45;;
10343;SDS011;5217;43.960;10.954;2022-11-24T11:30:56;3.45;;;2.58;;
10343;SDS011;5217;43.960;10.954;2022-11-24T11:33:52;4.03;;;2.55;;
10343;SDS011;5217;43.960;10.954;2022-11-24T11:36:33;3.80;;;2.45;;
10343;SDS011;5217;43.960;10.954;2022-11-24T11:39:04;4.60;;;2.42;;
10343;SDS011;5217;43.960;10.954;2022-11-24T11:41:35;5.22;;;2.13;;
10343;SDS011;5217;43.960;10.954;2022-11-24T11:44:24;3.45;;;2.60;;
10343;SDS011;5217;43.960;10.954;2022-11-24T11:46:58;4.28;;;3.63;;
10343;SDS011;5217;43.960;10.954;2022-11-24T11:49:32;6.80;;;3.65;;
10343;SDS011;5217;43.960;10.954;2022-11-24T11:52:07;6.55;;;3.15;;
10343;SDS011;5217;43.960;10.954;2022-11-24T11:54:55;7.03;;;3.17;;
10343;SDS011;5217;43.960;10.954;2022-11-24T11:57:36;4.35;;;2.50;;
10343;SDS011;5217;43.960;10.954;2022-11-24T12:00:13;5.45;;;2.70;;
10343;SDS011;5217;43.960;10.954;2022-11-24T12:02:51;4.07;;;2.15;;
10343;SDS011;5217;43.960;10.954;2022-11-24T12:05:42;5.22;;;2.70;;
10343;SDS011;5217;43.960;10.954;2022-11-24T12:08:20;4.90;;;2.45;;
10343;SDS011;5217;43.960;10.954;2022-11-24T12:11:19;3.25;;;1.83;;
10343;SDS011;5217;43.960;10.954;2022-11-24T12:13:56;4.07;;;2.30;;
10343;SDS011;5217;43.960;10.954;2022-11-24T12:16:44;2.78;;;1.92;;
10343;SDS011;5217;43.960;10.954;2022-11-24T12:22:21;2.63;;;1.92;;
10343;SDS011;5217;43.960;10.954;2022-11-24T12:25:00;3.30;;;1.80;;
10343;SDS011;5217;43.960;10.954;2022-11-24T12:27:40;2.70;;;2.00;;
10343;SDS011;5217;43.960;10.954;2022-11-24T12:30:17;4.38;;;2.13;;
10343;SDS011;5217;43.960;10.954;2022-11-24T12:32:56;2.72;;;1.95;;
10343;SDS011;5217;43.960;10.954;2022-11-24T12:35:37;3.35;;;2.08;;
10343;SDS011;5217;43.960;10.954;2022-11-24T12:41:10;3.65;;;2.03;;
10343;SDS011;5217;43.960;10.954;2022-11-24T12:44:09;2.88;;;1.90;;
10343;SDS011;5217;43.960;10.954;2022-11-24T12:46:55;2.92;;;1.88;;
10343;SDS011;5217;43.960;10.954;2022-11-24T12:49:35;2.80;;;2.05;;
10343;SDS011;5217;43.960;10.954;2022-11-24T12:52:15;4.75;;;2.80;;
10343;SDS011;5217;43.960;10.954;2022-11-24T12:54:47;3.97;;;2.22;;
10343;SDS011;5217;43.960;10.954;2022-11-24T12:57:17;2.83;;;2.15;;
10343;SDS011;5217;43.960;10.954;2022-11-24T12:59:52;4.53;;;2.60;;
10343;SDS011;5217;43.960;10.954;2022-11-24T13:02:28;4.43;;;2.72;;
10343;SDS011;5217;43.960;10.954;2022-11-24T13:05:11;5.47;;;2.88;;
10343;SDS011;5217;43.960;10.954;2022-11-24T13:07:46;5.00;;;2.90;;
10343;SDS011;5217;43.960;10.954;2022-11-24T13:10:29;4.15;;;2.50;;
10343;SDS011;5217;43.960;10.954;2022-11-24T13:13:22;3.28;;;2.40;;
10343;SDS011;5217;43.960;10.954;2022-11-24T13:19:08;3.95;;;2.65;;
10343;SDS011;5217;43.960;10.954;2022-11-24T13:24:40;3.25;;;2.65;;
10343;SDS011;5217;43.960;10.954;2022-11-24T13:39:02;6.05;;;4.80;;
10343;SDS011;5217;43.960;10.954;2022-11-24T13:44:57;5.60;;;4.18;;
10343;SDS011;5217;43.960;10.954;2022-11-24T13:47:28;4.88;;;3.47;;
10343;SDS011;5217;43.960;10.954;2022-11-24T13:49:58;4.32;;;3.20;;
10343;SDS011;5217;43.960;10.954;2022-11-24T13:52:38;4.75;;;3.10;;
10343;SDS011;5217;43.960;10.954;2022-11-24T13:55:21;4.93;;;3.70;;
10343;SDS011;5217;43.960;10.954;2022-11-24T13:58:03;8.02;;;6.45;;
10343;SDS011;5217;43.960;10.954;2022-11-24T14:00:57;7.53;;;5.50;;
10343;SDS011;5217;43.960;10.954;2022-11-24T14:03:40;5.88;;;4.20;;
10343;SDS011;5217;43.960;10.954;2022-11-24T14:06:34;4.47;;;3.60;;
10343;SDS011;5217;43.960;10.954;2022-11-24T14:09:13;5.88;;;4.78;;
10343;SDS011;5217;43.960;10.954;2022-11-24T14:12:05;5.47;;;4.50;;
10343;SDS011;5217;43.960;10.954;2022-11-24T14:14:39;7.10;;;4.10;;
10343;SDS011;5217;43.960;10.954;2022-11-24T14:17:16;9.05;;;5.68;;
10343;SDS011;5217;43.960;10.954;2022-11-24T14:19:49;9.90;;;8.45;;
10343;SDS011;5217;43.960;10.954;2022-11-24T14:22:19;10.38;;;9.25;;
10343;SDS011;5217;43.960;10.954;2022-11-24T14:24:50;9.88;;;7.80;;
10343;SDS011;5217;43.960;10.954;2022-11-24T14:27:22;7.78;;;4.78;;
10343;SDS011;5217;43.960;10.954;2022-11-24T14:29:55;5.63;;;3.92;;
10343;SDS011;5217;43.960;10.954;2022-11-24T14:32:26;7.57;;;3.90;;
10343;SDS011;5217;43.960;10.954;2022-11-24T14:34:54;7.45;;;5.03;;
10343;SDS011;5217;43.960;10.954;2022-11-24T14:37:23;6.40;;;4.38;;
10343;SDS011;5217;43.960;10.954;2022-11-24T14:39:51;10.57;;;7.78;;
10343;SDS011;5217;43.960;10.954;2022-11-24T14:42:22;7.90;;;6.78;;
10343;SDS011;5217;43.960;10.954;2022-11-24T14:44:53;8.35;;;7.07;;
10343;SDS011;5217;43.960;10.954;2022-11-24T14:47:25;6.93;;;4.85;;
10343;SDS011;5217;43.960;10.954;2022-11-24T14:50:05;7.15;;;5.93;;
10343;SDS011;5217;43.960;10.954;2022-11-24T14:52:40;8.65;;;4.70;;
10343;SDS011;5217;43.960;10.954;2022-11-24T14:55:25;4.88;;;3.80;;
10343;SDS011;5217;43.960;10.954;2022-11-24T14:57:56;6.05;;;3.50;;
10343;SDS011;5217;43.960;10.954;2022-11-24T15:00:26;5.10;;;3.63;;
10343;SDS011;5217;43.960;10.954;2022-11-24T15:03:06;6.88;;;5.95;;
10343;SDS011;5217;43.960;10.954;2022-11-24T15:05:52;10.63;;;8.30;;
10343;SDS011;5217;43.960;10.954;2022-11-24T15:08:21;10.70;;;9.43;;
10343;SDS011;5217;43.960;10.954;2022-11-24T15:10:56;11.18;;;9.15;;
10343;SDS011;5217;43.960;10.954;2022-11-24T15:13:28;11.18;;;9.65;;
10343;SDS011;5217;43.960;10.954;2022-11-24T15:16:00;13.68;;;12.27;;
10343;SDS011;5217;43.960;10.954;2022-11-24T15:18:34;13.73;;;12.32;;
10343;SDS011;5217;43.960;10.954;2022-11-24T15:21:05;13.23;;;11.82;;
10343;SDS011;5217;43.960;10.954;2022-11-24T15:23:41;11.30;;;9.88;;
10343;SDS011;5217;43.960;10.954;2022-11-24T15:26:23;11.85;;;9.40;;
10343;SDS011;5217;43.960;10.954;2022-11-24T15:29:05;10.90;;;9.40;;
10343;SDS011;5217;43.960;10.954;2022-11-24T15:31:33;13.02;;;9.57;;
10343;SDS011;5217;43.960;10.954;2022-11-24T15:34:02;11.13;;;10.00;;
10343;SDS011;5217;43.960;10.954;2022-11-24T15:36:30;10.87;;;9.53;;
10343;SDS011;5217;43.960;10.954;2022-11-24T15:38:59;13.27;;;10.07;;
10343;SDS011;5217;43.960;10.954;2022-11-24T15:41:28;12.20;;;10.90;;
10343;SDS011;5217;43.960;10.954;2022-11-24T15:43:57;24.27;;;19.50;;
10343;SDS011;5217;43.960;10.954;2022-11-24T15:46:28;23.47;;;20.97;;
10343;SDS011;5217;43.960;10.954;2022-11-24T15:49:03;20.97;;;18.77;;
10343;SDS011;5217;43.960;10.954;2022-11-24T15:51:32;17.93;;;16.10;;